createdAt,value
2023-06-25T00:01:29.981Z,7.00
2023-06-25T00:03:57.338Z,7.73
2023-06-25T00:06:24.656Z,8.30
2023-06-25T00:08:51.913Z,6.03
2023-06-25T00:11:21.077Z,7.53
2023-06-25T00:13:48.355Z,6.03
2023-06-25T00:16:15.696Z,6.50
2023-06-25T00:18:42.964Z,5.38
2023-06-25T00:21:10.249Z,6.38
2023-06-25T00:23:37.595Z,5.95
2023-06-25T00:26:05.023Z,7.25
2023-06-25T00:28:32.269Z,5.80
2023-06-25T00:30:59.567Z,5.75
2023-06-25T00:33:26.788Z,6.37
2023-06-25T00:35:56.469Z,6.53
2023-06-25T00:38:24.022Z,7.68
2023-06-25T00:40:52.160Z,6.55
2023-06-25T00:43:22.383Z,7.35
2023-06-25T00:45:49.984Z,5.88
2023-06-25T00:48:17.413Z,5.97
2023-06-25T00:50:44.942Z,8.13
2023-06-25T00:53:12.314Z,6.30
2023-06-25T00:55:40.060Z,6.20
2023-06-25T00:58:08.300Z,6.00
2023-06-25T01:00:36.300Z,6.10
2023-06-25T01:03:39.360Z,5.30
2023-06-25T01:06:16.194Z,6.93
2023-06-25T01:08:51.950Z,7.05
2023-06-25T01:11:19.515Z,5.80
2023-06-25T01:13:46.946Z,7.07
2023-06-25T01:16:14.200Z,8.98
2023-06-25T01:18:54.892Z,5.55
2023-06-25T01:21:28.201Z,6.38
2023-06-25T01:23:56.379Z,6.07
2023-06-25T01:26:23.728Z,6.55
2023-06-25T01:28:50.938Z,6.20
2023-06-25T01:31:18.255Z,7.53
2023-06-25T01:33:45.473Z,7.72
2023-06-25T01:36:12.769Z,6.80
2023-06-25T01:38:39.984Z,6.03
2023-06-25T01:41:07.186Z,5.67
2023-06-25T01:43:34.413Z,6.55
2023-06-25T01:46:01.698Z,5.80
2023-06-25T01:48:29.033Z,4.65
2023-06-25T01:50:57.993Z,5.82
2023-06-25T01:53:25.275Z,6.32
2023-06-25T01:55:53.590Z,5.50
2023-06-25T01:58:20.871Z,6.72
2023-06-25T02:00:48.952Z,5.18
2023-06-25T02:03:16.237Z,6.57
2023-06-25T02:05:43.576Z,5.70
2023-06-25T02:08:10.841Z,5.37
2023-06-25T02:10:38.032Z,5.75
2023-06-25T02:13:05.284Z,6.28
2023-06-25T02:15:32.506Z,7.67
2023-06-25T02:17:59.814Z,7.40
2023-06-25T02:20:27.184Z,6.32
2023-06-25T02:22:54.485Z,6.00
2023-06-25T02:25:21.727Z,5.97
2023-06-25T02:27:48.981Z,7.43
2023-06-25T02:30:16.321Z,5.93
2023-06-25T02:32:43.696Z,8.02
2023-06-25T02:35:11.137Z,5.95
2023-06-25T02:37:38.368Z,5.88
2023-06-25T02:40:06.473Z,6.43
2023-06-25T02:42:33.708Z,6.35
2023-06-25T02:45:00.903Z,5.85
2023-06-25T02:47:28.241Z,7.33
2023-06-25T02:49:55.521Z,7.57
2023-06-25T02:52:24.281Z,7.82
2023-06-25T02:54:51.583Z,6.95
2023-06-25T02:57:18.897Z,6.13
2023-06-25T02:59:46.168Z,6.47
2023-06-25T03:02:13.525Z,6.60
2023-06-25T03:04:40.742Z,6.30
2023-06-25T03:07:08.123Z,8.57
2023-06-25T03:09:35.463Z,8.52
2023-06-25T03:12:02.819Z,6.63
2023-06-25T03:14:35.312Z,8.40
2023-06-25T03:17:05.176Z,8.77
2023-06-25T03:19:33.358Z,6.87
2023-06-25T03:22:01.149Z,7.68
2023-06-25T03:24:28.407Z,7.20
2023-06-25T03:26:55.706Z,7.90
2023-06-25T03:29:23.009Z,7.70
2023-06-25T03:31:51.635Z,7.40
2023-06-25T03:34:18.898Z,7.18
2023-06-25T03:36:46.198Z,7.13
2023-06-25T03:39:13.551Z,7.40
2023-06-25T03:41:40.783Z,7.80
2023-06-25T03:44:08.017Z,6.50
2023-06-25T03:46:35.295Z,7.90
2023-06-25T03:49:03.760Z,9.07
2023-06-25T03:51:31.047Z,8.43
2023-06-25T03:53:58.310Z,6.88
2023-06-25T03:56:25.787Z,7.30
2023-06-25T03:58:53.325Z,6.03
2023-06-25T04:01:20.675Z,7.43
2023-06-25T04:03:47.950Z,9.70
2023-06-25T04:06:15.227Z,8.27
2023-06-25T04:08:42.444Z,7.30
2023-06-25T04:11:09.679Z,6.85
2023-06-25T04:13:36.857Z,7.23
2023-06-25T04:16:04.283Z,6.78
2023-06-25T04:18:31.535Z,6.68
2023-06-25T04:20:58.805Z,6.97
2023-06-25T04:23:26.144Z,9.05
2023-06-25T04:25:53.500Z,8.23
2023-06-25T04:28:20.767Z,7.65
2023-06-25T04:30:47.986Z,7.32
2023-06-25T04:33:15.267Z,9.53
2023-06-25T04:35:42.559Z,9.30
2023-06-25T04:38:12.047Z,7.10
2023-06-25T04:40:39.304Z,7.20
2023-06-25T04:43:06.494Z,6.70
2023-06-25T04:45:33.817Z,7.17
2023-06-25T04:48:01.105Z,8.38
2023-06-25T04:50:28.455Z,9.23
2023-06-25T04:52:55.933Z,8.07
2023-06-25T04:55:23.345Z,7.47
2023-06-25T04:57:50.714Z,9.05
2023-06-25T05:00:18.170Z,7.07
2023-06-25T05:02:45.443Z,7.00
2023-06-25T05:05:12.800Z,6.95
2023-06-25T05:07:40.034Z,7.10
2023-06-25T05:10:07.986Z,8.37
2023-06-25T05:12:35.180Z,9.50
2023-06-25T05:15:02.452Z,9.88
2023-06-25T05:17:29.681Z,6.97
2023-06-25T05:19:56.890Z,9.05
2023-06-25T05:22:24.228Z,7.78
2023-06-25T05:24:51.481Z,8.77
2023-06-25T05:27:18.894Z,9.15
2023-06-25T05:29:46.231Z,7.60
2023-06-25T05:32:13.553Z,9.43
2023-06-25T05:34:40.799Z,8.05
2023-06-25T05:37:08.062Z,12.23
2023-06-25T05:39:35.383Z,10.93
2023-06-25T05:42:02.646Z,8.88
2023-06-25T05:44:29.974Z,11.18
2023-06-25T05:46:57.309Z,9.65
2023-06-25T05:49:24.639Z,11.43
2023-06-25T05:51:52.824Z,9.77
2023-06-25T05:54:20.094Z,9.05
2023-06-25T05:56:47.475Z,9.65
2023-06-25T05:59:14.744Z,10.75
2023-06-25T06:01:42.006Z,8.35
2023-06-25T06:04:09.218Z,8.95
2023-06-25T06:06:36.496Z,10.27
2023-06-25T06:09:03.977Z,10.07
2023-06-25T06:11:31.536Z,11.20
2023-06-25T06:13:58.996Z,9.23
2023-06-25T06:16:26.510Z,10.07
2023-06-25T06:18:53.831Z,11.02
2023-06-25T06:21:21.080Z,10.82
2023-06-25T06:23:48.311Z,8.60
2023-06-25T06:26:17.314Z,9.15
2023-06-25T06:28:44.696Z,9.35
2023-06-25T06:31:12.001Z,8.27
2023-06-25T06:33:40.147Z,8.83
2023-06-25T06:36:07.513Z,10.93
2023-06-25T06:38:34.860Z,8.50
2023-06-25T06:41:02.338Z,9.83
2023-06-25T06:43:29.583Z,7.90
2023-06-25T06:45:56.893Z,8.15
2023-06-25T06:48:25.218Z,7.32
2023-06-25T06:50:52.715Z,7.63
2023-06-25T06:53:20.069Z,7.90
2023-06-25T06:55:47.300Z,9.02
2023-06-25T06:58:14.690Z,9.15
2023-06-25T07:00:42.195Z,8.18
2023-06-25T07:03:09.517Z,9.75
2023-06-25T07:05:37.013Z,9.23
2023-06-25T07:08:05.346Z,8.48
2023-06-25T07:10:32.737Z,8.32
2023-06-25T07:13:00.004Z,7.75
2023-06-25T07:15:27.331Z,7.78
2023-06-25T07:17:54.585Z,7.73
2023-06-25T07:20:22.177Z,7.95
2023-06-25T07:22:49.420Z,7.10
2023-06-25T07:25:16.806Z,9.02
2023-06-25T07:27:44.105Z,8.75
2023-06-25T07:30:12.122Z,8.52
2023-06-25T07:32:39.394Z,9.88
2023-06-25T07:35:07.842Z,7.32
2023-06-25T07:37:37.501Z,8.05
2023-06-25T07:40:06.904Z,8.57
2023-06-25T07:42:34.183Z,10.18
2023-06-25T07:45:01.444Z,9.10
2023-06-25T07:47:28.766Z,10.03
2023-06-25T07:49:56.102Z,8.52
2023-06-25T07:52:23.361Z,8.23
2023-06-25T07:54:50.697Z,8.80
2023-06-25T07:57:17.986Z,8.25
2023-06-25T08:00:05.698Z,9.98
2023-06-25T08:02:33.125Z,8.93
2023-06-25T08:05:00.455Z,8.18
2023-06-25T08:07:27.719Z,9.10
2023-06-25T08:09:59.549Z,8.45
2023-06-25T08:12:27.691Z,8.60
2023-06-25T08:14:55.082Z,10.47
2023-06-25T08:17:22.568Z,9.00
2023-06-25T08:19:49.845Z,8.93
2023-06-25T08:22:17.112Z,8.97
2023-06-25T08:24:44.374Z,8.55
2023-06-25T08:27:11.800Z,9.38
2023-06-25T08:29:39.231Z,8.65
2023-06-25T08:32:07.318Z,7.97
2023-06-25T08:34:35.757Z,10.02
2023-06-25T08:37:02.973Z,8.55
2023-06-25T08:39:30.201Z,10.27
2023-06-25T08:41:57.377Z,9.55
2023-06-25T08:44:24.640Z,8.80
2023-06-25T08:46:55.961Z,8.05
2023-06-25T08:49:31.891Z,8.85
2023-06-25T08:52:02.415Z,9.48
2023-06-25T08:54:29.669Z,8.00
2023-06-25T08:56:57.108Z,8.60
2023-06-25T08:59:24.835Z,7.38
2023-06-25T09:01:52.136Z,8.37
2023-06-25T09:04:20.319Z,8.25
2023-06-25T09:07:03.161Z,8.30
2023-06-25T09:09:31.465Z,7.20
2023-06-25T09:11:59.782Z,8.40
2023-06-25T09:14:32.141Z,7.53
2023-06-25T09:16:59.630Z,9.23
2023-06-25T09:19:29.697Z,8.90
2023-06-25T09:21:56.893Z,8.73
2023-06-25T09:24:24.156Z,10.60
2023-06-25T09:26:54.032Z,9.75
2023-06-25T09:29:23.637Z,11.02
2023-06-25T09:31:51.572Z,8.55
2023-06-25T09:34:23.062Z,10.70
2023-06-25T09:36:50.452Z,8.40
2023-06-25T09:39:17.674Z,9.67
2023-06-25T09:41:45.547Z,9.55
2023-06-25T09:44:12.919Z,9.07
2023-06-25T09:46:42.646Z,9.20
2023-06-25T09:49:10.134Z,8.57
2023-06-25T09:52:17.075Z,8.90
2023-06-25T09:54:48.982Z,8.20
2023-06-25T09:57:20.789Z,8.38
2023-06-25T09:59:48.263Z,7.97
2023-06-25T10:02:17.403Z,8.68
2023-06-25T10:04:46.441Z,7.93
2023-06-25T10:07:14.314Z,8.80
2023-06-25T10:09:56.714Z,8.30
2023-06-25T10:12:24.401Z,9.57
2023-06-25T10:14:51.926Z,9.60
2023-06-25T10:17:24.607Z,8.73
2023-06-25T10:19:56.907Z,8.13
2023-06-25T10:22:26.235Z,10.13
2023-06-25T10:24:55.613Z,7.50
2023-06-25T10:27:30.853Z,8.10
2023-06-25T10:30:00.232Z,8.15
2023-06-25T10:32:30.400Z,7.22
2023-06-25T10:35:03.272Z,8.60
2023-06-25T10:37:36.626Z,7.97
2023-06-25T10:40:11.997Z,8.98
2023-06-25T10:42:39.766Z,9.15
2023-06-25T10:45:08.992Z,8.43
2023-06-25T10:47:36.582Z,7.03
2023-06-25T10:50:04.120Z,8.82
2023-06-25T10:52:31.833Z,8.30
2023-06-25T10:55:03.349Z,7.53
2023-06-25T10:57:32.884Z,8.77
2023-06-25T11:00:00.521Z,8.48
2023-06-25T11:02:27.891Z,10.65
2023-06-25T11:05:00.900Z,7.72
2023-06-25T11:07:28.445Z,7.75
2023-06-25T11:09:59.594Z,7.85
2023-06-25T11:12:28.637Z,8.20
2023-06-25T11:14:58.161Z,8.43
2023-06-25T11:17:27.664Z,9.65
2023-06-25T11:19:57.589Z,7.95
2023-06-25T11:22:24.930Z,7.67
2023-06-25T11:24:52.271Z,8.95
2023-06-25T11:27:27.606Z,7.97
2023-06-25T11:29:59.172Z,7.38
2023-06-25T11:32:32.254Z,7.97
2023-06-25T11:35:07.387Z,9.02
2023-06-25T11:37:50.511Z,8.10
2023-06-25T11:40:28.155Z,8.77
2023-06-25T11:42:56.032Z,8.07
2023-06-25T11:45:23.848Z,8.48
2023-06-25T11:47:55.705Z,8.57
2023-06-25T11:50:27.503Z,11.05
2023-06-25T11:52:56.738Z,7.50
2023-06-25T11:55:27.408Z,8.40
2023-06-25T11:57:54.782Z,11.32
2023-06-25T12:00:22.247Z,7.78
2023-06-25T12:02:50.667Z,7.35
2023-06-25T12:05:18.620Z,7.97
2023-06-25T12:07:46.080Z,8.20
2023-06-25T12:10:13.555Z,10.03
2023-06-25T12:12:42.251Z,8.48
2023-06-25T12:15:09.794Z,7.38
2023-06-25T12:17:37.148Z,9.02
2023-06-25T12:20:05.652Z,8.15
2023-06-25T12:22:33.624Z,8.00
2023-06-25T12:25:00.979Z,9.70
2023-06-25T12:27:28.385Z,9.73
2023-06-25T12:29:55.839Z,7.80
2023-06-25T12:32:23.325Z,7.80
2023-06-25T12:34:50.660Z,8.27
2023-06-25T12:37:18.011Z,8.05
2023-06-25T12:39:45.384Z,8.93
2023-06-25T12:42:12.872Z,7.30
2023-06-25T12:44:40.461Z,7.05
2023-06-25T12:47:07.899Z,8.43
2023-06-25T12:49:35.236Z,7.63
2023-06-25T12:52:02.702Z,8.10
2023-06-25T12:54:30.168Z,7.35
2023-06-25T12:56:57.465Z,7.80
2023-06-25T12:59:24.894Z,7.50
2023-06-25T13:01:57.320Z,8.45
2023-06-25T13:04:25.041Z,8.10
2023-06-25T13:06:52.448Z,7.88
2023-06-25T13:09:19.723Z,7.13
2023-06-25T13:11:47.140Z,8.68
2023-06-25T13:14:14.491Z,7.10
2023-06-25T13:16:43.158Z,6.85
2023-06-25T13:19:10.460Z,6.80
2023-06-25T13:21:37.752Z,6.28
2023-06-25T13:24:05.373Z,7.13
2023-06-25T13:26:32.866Z,6.85
2023-06-25T13:29:00.329Z,6.82
2023-06-25T13:31:27.671Z,6.95
2023-06-25T13:33:55.180Z,6.70
2023-06-25T13:36:22.575Z,7.00
2023-06-25T13:38:49.943Z,8.05
2023-06-25T13:41:17.330Z,6.30
2023-06-25T13:43:45.359Z,7.43
2023-06-25T13:46:12.620Z,5.88
2023-06-25T13:48:39.964Z,6.57
2023-06-25T13:51:07.344Z,5.70
2023-06-25T13:53:34.611Z,6.13
2023-06-25T13:56:02.289Z,6.60
2023-06-25T13:58:29.615Z,6.72
2023-06-25T14:00:56.987Z,6.55
2023-06-25T14:03:25.273Z,6.45
2023-06-25T14:05:53.710Z,5.85
2023-06-25T14:08:21.114Z,6.50
2023-06-25T14:10:48.389Z,6.10
2023-06-25T14:13:17.369Z,6.53
2023-06-25T14:15:45.261Z,7.57
2023-06-25T14:18:12.794Z,5.83
2023-06-25T14:20:40.208Z,8.47
2023-06-25T14:23:07.517Z,8.02
2023-06-25T14:25:35.596Z,6.07
2023-06-25T14:28:03.618Z,5.68
2023-06-25T14:30:30.964Z,6.15
2023-06-25T14:32:58.319Z,7.35
2023-06-25T14:35:25.840Z,5.57
2023-06-25T14:37:54.649Z,5.72
2023-06-25T14:40:22.455Z,5.72
2023-06-25T14:42:50.660Z,6.70
2023-06-25T14:45:17.989Z,5.83
2023-06-25T14:47:45.304Z,6.47
2023-06-25T14:50:12.681Z,6.85
2023-06-25T14:52:40.012Z,7.63
2023-06-25T14:55:07.634Z,5.57
2023-06-25T14:57:34.959Z,7.07
2023-06-25T15:00:02.653Z,6.47
2023-06-25T15:02:30.318Z,6.10
2023-06-25T15:04:57.768Z,5.75
2023-06-25T15:07:25.256Z,5.68
2023-06-25T15:09:52.529Z,6.82
2023-06-25T15:12:19.776Z,6.20
2023-06-25T15:14:47.025Z,8.38
2023-06-25T15:17:14.456Z,5.93
2023-06-25T15:19:41.747Z,5.77
2023-06-25T15:22:09.037Z,6.20
2023-06-25T15:24:36.275Z,9.75
2023-06-25T15:27:03.809Z,5.47
2023-06-25T15:29:31.191Z,5.78
2023-06-25T15:31:59.829Z,7.80
2023-06-25T15:34:27.224Z,5.82
2023-06-25T15:36:54.634Z,5.82
2023-06-25T15:39:21.878Z,5.50
2023-06-25T15:41:49.567Z,6.95
2023-06-25T15:44:16.990Z,8.57
2023-06-25T15:46:44.315Z,6.00
2023-06-25T15:49:11.560Z,5.57
2023-06-25T15:51:40.205Z,5.47
2023-06-25T15:56:40.921Z,6.32
2023-06-25T15:59:08.314Z,5.00
2023-06-25T16:01:35.595Z,5.35
2023-06-25T16:04:02.870Z,4.95
2023-06-25T16:06:30.131Z,4.88
2023-06-25T16:08:57.388Z,5.57
2023-06-25T16:11:24.875Z,5.40
2023-06-25T16:13:54.565Z,5.00
2023-06-25T16:16:22.145Z,5.43
2023-06-25T16:18:51.387Z,5.00
2023-06-25T16:21:23.902Z,5.38
2023-06-25T16:23:51.126Z,5.90
2023-06-25T16:26:18.433Z,6.07
2023-06-25T16:28:45.939Z,6.60
2023-06-25T16:31:13.401Z,4.90
2023-06-25T16:33:40.744Z,5.13
2023-06-25T16:36:09.033Z,5.05
2023-06-25T16:38:36.280Z,5.20
2023-06-25T16:41:03.624Z,5.50
2023-06-25T16:43:30.945Z,4.87
2023-06-25T16:45:58.307Z,6.97
2023-06-25T16:48:25.621Z,4.63
2023-06-25T16:50:54.648Z,5.53
2023-06-25T16:53:22.232Z,6.88
2023-06-25T16:55:49.507Z,5.43
2023-06-25T16:58:17.042Z,5.00
2023-06-25T17:00:44.461Z,4.85
2023-06-25T17:03:13.089Z,5.60
2023-06-25T17:05:40.767Z,5.63
2023-06-25T17:08:08.175Z,4.80
2023-06-25T17:10:35.776Z,6.20
2023-06-25T17:13:03.666Z,6.18
2023-06-25T17:15:30.901Z,5.25
2023-06-25T17:17:58.167Z,5.22
2023-06-25T17:20:25.589Z,7.32
2023-06-25T17:22:52.863Z,6.32
2023-06-25T17:25:20.082Z,5.55
2023-06-25T17:27:47.508Z,5.50
2023-06-25T17:30:15.268Z,6.78
2023-06-25T17:32:42.678Z,6.35
2023-06-25T17:35:10.330Z,5.30
2023-06-25T17:37:37.663Z,6.82
2023-06-25T17:40:05.433Z,5.75
2023-06-25T17:42:32.655Z,6.68
2023-06-25T17:44:59.878Z,6.25
2023-06-25T17:47:29.244Z,6.30
2023-06-25T17:49:56.847Z,7.18
2023-06-25T17:52:24.331Z,6.50
2023-06-25T17:54:51.723Z,6.13
2023-06-25T17:57:19.191Z,6.13
2023-06-25T17:59:46.528Z,7.70
2023-06-25T18:02:13.847Z,7.17
2023-06-25T18:04:42.579Z,6.00
2023-06-25T18:07:10.283Z,7.25
2023-06-25T18:09:38.558Z,6.60
2023-06-25T18:12:06.198Z,6.13
2023-06-25T18:14:34.044Z,8.15
2023-06-25T18:17:01.386Z,6.27
2023-06-25T18:19:28.742Z,6.85
2023-06-25T18:21:56.081Z,6.47
2023-06-25T18:24:24.416Z,6.25
2023-06-25T18:26:51.792Z,6.88
2023-06-25T18:29:19.411Z,7.93
2023-06-25T18:31:47.430Z,6.57
2023-06-25T18:34:16.039Z,7.78
2023-06-25T18:36:46.540Z,7.20
2023-06-25T18:39:15.496Z,6.20
2023-06-25T18:41:42.884Z,7.95
2023-06-25T18:44:10.388Z,7.78
2023-06-25T18:46:38.292Z,6.90
2023-06-25T18:49:05.726Z,6.73
2023-06-25T18:51:33.048Z,6.53
2023-06-25T18:54:00.474Z,6.80
2023-06-25T18:56:27.854Z,9.17
2023-06-25T18:58:55.277Z,6.68
2023-06-25T19:01:22.940Z,7.18
2023-06-25T19:03:51.244Z,7.10
2023-06-25T19:06:18.616Z,6.80
2023-06-25T19:08:45.878Z,7.13
2023-06-25T19:11:13.287Z,6.20
2023-06-25T19:13:40.531Z,5.95
2023-06-25T19:16:08.321Z,8.13
2023-06-25T19:18:35.690Z,7.43
2023-06-25T19:21:02.930Z,6.97
2023-06-25T19:23:30.664Z,6.13
2023-06-25T19:26:02.868Z,7.40
2023-06-25T19:28:30.436Z,7.95
2023-06-25T19:30:57.739Z,7.13
2023-06-25T19:33:27.513Z,7.93
2023-06-25T19:35:54.936Z,7.53
2023-06-25T19:38:22.183Z,7.60
2023-06-25T19:40:51.221Z,7.00
2023-06-25T19:43:18.498Z,6.68
2023-06-25T19:46:04.567Z,7.95
2023-06-25T19:48:32.034Z,9.43
2023-06-25T19:50:59.452Z,8.63
2023-06-25T19:53:26.833Z,8.10
2023-06-25T19:55:54.198Z,8.77
2023-06-25T19:58:21.470Z,7.72
2023-06-25T20:00:48.835Z,6.30
2023-06-25T20:03:16.276Z,7.90
2023-06-25T20:05:43.539Z,8.07
2023-06-25T20:08:10.961Z,7.47
2023-06-25T20:10:38.478Z,6.60
2023-06-25T20:13:05.925Z,6.43
2023-06-25T20:15:33.377Z,6.88
2023-06-25T20:18:00.717Z,7.38
2023-06-25T20:20:29.261Z,7.78
2023-06-25T20:22:56.628Z,7.47
2023-06-25T20:25:23.897Z,8.48
2023-06-25T20:27:51.079Z,7.07
2023-06-25T20:30:18.474Z,7.75
2023-06-25T20:32:45.789Z,9.85
2023-06-25T20:35:13.279Z,6.03
2023-06-25T20:37:40.537Z,5.93
2023-06-25T20:40:08.786Z,7.68
2023-06-25T20:42:38.582Z,6.65
2023-06-25T20:45:07.817Z,7.15
2023-06-25T20:47:40.309Z,6.57
2023-06-25T20:50:09.066Z,5.80
2023-06-25T20:52:37.119Z,8.82
2023-06-25T20:55:04.502Z,8.23
2023-06-25T20:57:31.827Z,6.95
2023-06-25T20:59:59.144Z,5.82
2023-06-25T21:02:26.463Z,7.50
2023-06-25T21:04:53.889Z,5.18
2023-06-25T21:07:21.160Z,6.00
2023-06-25T21:09:49.230Z,6.95
2023-06-25T21:12:17.537Z,7.38
2023-06-25T21:14:44.801Z,6.88
2023-06-25T21:17:12.014Z,7.65
2023-06-25T21:19:39.338Z,6.93
2023-06-25T21:22:06.639Z,6.93
2023-06-25T21:24:33.933Z,5.80
2023-06-25T21:27:01.339Z,6.80
2023-06-25T21:29:28.628Z,6.20
2023-06-25T21:31:55.864Z,5.45
2023-06-25T21:34:23.135Z,6.75
2023-06-25T21:36:50.498Z,5.80
2023-06-25T21:39:17.727Z,5.75
2023-06-25T21:41:45.001Z,6.60
2023-06-25T21:44:12.236Z,8.75
2023-06-25T21:46:43.032Z,5.72
2023-06-25T21:49:10.615Z,7.80
2023-06-25T21:51:37.929Z,6.20
2023-06-25T21:54:05.240Z,6.85
2023-06-25T21:56:32.949Z,6.10
2023-06-25T21:59:00.302Z,5.97
2023-06-25T22:01:27.662Z,5.57
2023-06-25T22:03:54.994Z,6.80
2023-06-25T22:06:22.967Z,7.88
2023-06-25T22:08:50.240Z,5.85
2023-06-25T22:11:17.623Z,5.53
2023-06-25T22:13:44.983Z,4.57
2023-06-25T22:16:12.249Z,6.15
2023-06-25T22:18:39.581Z,5.93
2023-06-25T22:21:09.166Z,6.72
2023-06-25T22:23:37.162Z,7.10
2023-06-25T22:26:05.581Z,10.30
2023-06-25T22:28:33.302Z,4.97
2023-06-25T22:31:00.576Z,5.20
2023-06-25T22:33:27.959Z,5.43
2023-06-25T22:35:55.286Z,5.35
2023-06-25T22:38:22.583Z,5.72
2023-06-25T22:40:50.188Z,5.28
2023-06-25T22:43:17.700Z,5.65
2023-06-25T22:45:45.022Z,4.72
2023-06-25T22:48:12.509Z,7.05
2023-06-25T22:50:40.139Z,6.18
2023-06-25T22:53:09.111Z,5.15
2023-06-25T22:55:36.727Z,6.53
2023-06-25T22:58:04.026Z,5.53
2023-06-25T23:00:31.520Z,5.05
2023-06-25T23:02:58.838Z,5.80
2023-06-25T23:05:26.136Z,7.05
2023-06-25T23:07:53.369Z,5.10
2023-06-25T23:10:20.913Z,5.88
2023-06-25T23:12:48.168Z,6.63
2023-06-25T23:15:15.893Z,6.35
2023-06-25T23:17:43.223Z,4.97
2023-06-25T23:20:10.812Z,5.80
2023-06-25T23:22:38.620Z,6.22
2023-06-25T23:25:19.061Z,4.95
2023-06-25T23:27:53.888Z,5.22
2023-06-25T23:30:26.687Z,6.13
2023-06-25T23:32:54.556Z,6.00
2023-06-25T23:35:21.863Z,5.70
2023-06-25T23:37:50.658Z,5.15
2023-06-25T23:40:17.972Z,5.25
2023-06-25T23:42:45.259Z,4.90
2023-06-25T23:45:12.562Z,4.80
2023-06-25T23:47:40.079Z,4.95
2023-06-25T23:50:07.979Z,5.55
2023-06-25T23:52:35.209Z,6.17
2023-06-25T23:55:02.492Z,5.13
2023-06-25T23:57:29.853Z,5.22
2023-06-25T23:59:57.101Z,6.03
